MSC Bettina — HPFG — position and weather

sailwx.info

Track history (hours):
 
Tides and Currents Weather Stations Pressure Air Temp Water Temp Dewpoint Dewpoint Depression Visibility Wind Speed Wind Dir Waves Ship Positions

MSC Bettina

Last reported at 2018-Apr-22 05:00 UTC. Time now 2018-Apr-26 17:20 UTC.
Position N 34°55' E 128°50'.

Length 366 m; draft 14.5 m.

Type: Ship (hazmat cat A). MMSI: 352361000.

Date/timePositionNaut miles runAvg speedWind from/ knotsBaromVisibWave heightAir tempDewpointWater temp
2018-Apr-22 05:00N 34°55' E 128°50'4 0.2
2018-Apr-21 06:58N 34°59' E 128°49'4 8.7
2018-Apr-21 06:28N 34°54' E 128°51'9 9.6
2018-Apr-21 05:33N 34°46' E 128°50'5 9.4
2018-Apr-21 05:04N 34°41' E 128°51'210.8
2018-Apr-21 04:50N 34°39' E 128°51'3 8.1
2018-Apr-21 04:27N 34°36' E 128°48'816.4
2018-Apr-21 03:58N 34°33' E 128°40'1319.7
2018-Apr-21 03:20N 34°26' E 128°27'719.5
2018-Apr-21 02:58N 34°22' E 128°20'3019.8
2018-Apr-21 01:29N 34°07' E 127°49'1219.8
2018-Apr-21 00:54N 33°60' E 127°38'1019.6
2018-Apr-21 00:23N 33°57' E 127°27'820.6
2018-Apr-20 23:58N 33°56' E 127°17'1020.7
2018-Apr-20 23:29N 33°54' E 127°05'1020.5
2018-Apr-20 23:00N 33°53' E 126°53'1020.7
2018-Apr-20 22:30N 33°51' E 126°41'1220.4
2018-Apr-20 21:55N 33°49' E 126°26'6018.5
2018-Apr-20 18:40N 34°05' E 125°17'14018.9
2018-Apr-20 11:16N 36°16' E 124°17'518.7
2018-Apr-20 11:00N 36°20' E 124°13'1818.9
2018-Apr-20 10:04N 36°36' E 124°05'118.9
2018-Apr-20 10:00N 36°37' E 124°05'1819.0
2018-Apr-20 09:04N 36°54' E 123°57'219.3
2018-Apr-20 08:59N 36°55' E 123°56'1919.6
2018-Apr-20 08:02N 37°13' E 123°48'719.9
2018-Apr-20 07:39N 37°20' E 123°44'320.1
2018-Apr-20 07:30N 37°23' E 123°43'1020.1
2018-Apr-20 07:00N 37°32' E 123°38'1020.1
2018-Apr-20 06:30N 37°41' E 123°33'919.2
2018-Apr-20 06:00N 37°49' E 123°26'3419.1
2018-Apr-20 04:15N 38°00' E 122°46'418.4
2018-Apr-20 04:00N 38°02' E 122°41'918.2
2018-Apr-20 03:30N 38°05' E 122°30'918.2
2018-Apr-20 03:00N 38°07' E 122°19'918.1
2018-Apr-20 02:30N 38°12' E 122°09'918.4
2018-Apr-20 02:00N 38°14' E 121°58'918.1
2018-Apr-20 01:30N 38°18' E 121°47'917.9
2018-Apr-20 01:00N 38°21' E 121°36'917.8
2018-Apr-20 00:30N 38°23' E 121°25'4316.8
2018-Apr-19 21:58N 38°34' E 120°33'817.4
2018-Apr-19 21:30N 38°36' E 120°23'917.0
2018-Apr-19 20:59N 38°37' E 120°11'916.6
2018-Apr-19 20:28N 38°38' E 120°00'716.4
2018-Apr-19 20:00N 38°39' E 119°51'1416.3
2018-Apr-19 19:11N 38°41' E 119°34'2216.1
2018-Apr-19 17:50N 38°45' E 119°07'1216.1
2018-Apr-19 17:06N 38°47' E 118°52'216.2
2018-Apr-19 16:59N 38°47' E 118°49'  
2018-Apr-17 11:46N 38°42' E 120°26'312.2
2018-Apr-17 11:30N 38°42' E 120°30'1213.2
2018-Apr-17 10:34N 38°41' E 120°46'114.1
2018-Apr-17 10:30N 38°41' E 120°47'814.9
2018-Apr-17 10:00N 38°40' E 120°57'815.7
2018-Apr-17 09:30N 38°34' E 121°03'714.8
2018-Apr-17 09:00N 38°31' E 121°12'916.9
2018-Apr-17 08:27N 38°31' E 121°24'817.1
2018-Apr-17 08:00N 38°31' E 121°34'816.2
2018-Apr-17 07:30N 38°35' E 121°43'917.0
2018-Apr-17 07:00N 38°43' E 121°48'816.2
2018-Apr-17 06:30N 38°50' E 121°53'9 0.3
2018-Apr-16 02:37N 38°59' E 121°56'112.8
2018-Apr-16 02:30N 38°57' E 121°56'510.0
2018-Apr-16 02:00N 38°52' E 121°56'611.5
2018-Apr-16 01:30N 38°46' E 121°57'1 1.5
2018-Apr-16 00:59N 38°46' E 121°58'2 3.6
2018-Apr-16 00:30N 38°45' E 121°59'3 6.9
2018-Apr-16 00:00N 38°41' E 121°59'3 5.8
2018-Apr-15 23:30N 38°38' E 121°59'2 3.6
2018-Apr-15 23:00N 38°36' E 121°59'2 4.5
2018-Apr-15 22:30N 38°35' E 122°02'3 6.6
2018-Apr-15 22:00N 38°34' E 122°06'4 8.6
2018-Apr-15 21:30N 38°32' E 122°10'0 0.6
2018-Apr-15 21:00N 38°32' E 122°10'1 1.1
2018-Apr-15 20:30N 38°32' E 122°09'1 1.1
2018-Apr-15 20:00N 38°31' E 122°09'0 1.0
2018-Apr-15 19:30N 38°31' E 122°08'0 1.0
2018-Apr-15 19:00N 38°31' E 122°08'0 0.8
2018-Apr-15 18:30N 38°31' E 122°07'2 0.6
2018-Apr-15 14:51N 38°33' E 122°06'0 0.7
2018-Apr-15 14:30N 38°33' E 122°07'0 0.7
2018-Apr-15 14:00N 38°34' E 122°06'0 0.6
2018-Apr-15 13:30N 38°34' E 122°06'0 0.5
2018-Apr-15 12:51N 38°34' E 122°06'0 0.4
2018-Apr-15 12:30N 38°34' E 122°06'0 0.6
2018-Apr-15 12:00N 38°34' E 122°06'0 0.6
2018-Apr-15 11:21N 38°35' E 122°06'0 0.8
2018-Apr-15 10:57N 38°35' E 122°05'0 0.8
2018-Apr-15 10:30N 38°35' E 122°05'0 0.9
2018-Apr-15 10:00N 38°35' E 122°04'2 1.1
2018-Apr-15 08:18N 38°35' E 122°02'0 1.2
2018-Apr-15 07:57N 38°35' E 122°01'1 1.3
2018-Apr-15 07:30N 38°35' E 122°01'1 1.2
2018-Apr-15 07:00N 38°35' E 121°60'1 1.2
2018-Apr-15 06:30N 38°36' E 121°59'1 1.1
2018-Apr-15 05:57N 38°36' E 121°59'0 1.0
2018-Apr-15 05:30N 38°37' E 121°59'1 2.6
2018-Apr-15 05:00N 38°38' E 121°59'5 9.0
2018-Apr-15 04:30N 38°38' E 122°05'22 1.7
2018-Apr-14 15:44N 38°27' E 122°30'311.4
2018-Apr-14 15:29N 38°25' E 122°32'511.3
2018-Apr-14 15:00N 38°20' E 122°35'611.3
2018-Apr-14 14:30N 38°16' E 122°39'611.0
2018-Apr-14 14:00N 38°11' E 122°43'2111.1
2018-Apr-14 12:09N 37°54' E 122°58'211.6
2018-Apr-14 12:00N 37°53' E 122°59'611.6
2018-Apr-14 11:29N 37°48' E 123°03'612.0
2018-Apr-14 10:59N 37°43' E 123°08'612.2
2018-Apr-14 10:30N 37°38' E 123°13'42813.3
2018-Apr-13 02:22N 30°32' E 122°24'716.3
2018-Apr-13 01:56N 30°34' E 122°16'2 5.1
2018-Apr-13 01:30N 30°34' E 122°13'810.3
2018-Apr-13 00:44N 30°36' E 122°04'1 0.7
2018-Apr-12 22:54N 30°37' E 122°04'0 0.0
2018-Apr-12 22:27N 30°37' E 122°04'0 0.0
2018-Apr-12 21:44N 30°37' E 122°04'0 0.0
2018-Apr-12 21:26N 30°37' E 122°04'0 0.0
2018-Apr-12 21:00N 30°37' E 122°04'  
Track history (hours):
 
Tides and Currents Weather Stations Pressure Air Temp Water Temp Dewpoint Dewpoint Depression Visibility Wind Speed Wind Dir Waves Ship Positions

MSC Bettina

Last reported at 2018-Apr-22 05:00 UTC. Time now 2018-Apr-26 17:20 UTC.
Position N 34°55' E 128°50'.

Length 366 m; draft 14.5 m.

Type: Ship (hazmat cat A). MMSI: 352361000.

Date/timePositionNaut miles runAvg speedWind from/ knotsBaromVisibWave heightAir tempDewpointWater temp
2018-Apr-22 05:00N 34°55' E 128°50'4 0.2
2018-Apr-21 06:58N 34°59' E 128°49'4 8.7
2018-Apr-21 06:28N 34°54' E 128°51'9 9.6
2018-Apr-21 05:33N 34°46' E 128°50'5 9.4
2018-Apr-21 05:04N 34°41' E 128°51'210.8
2018-Apr-21 04:50N 34°39' E 128°51'3 8.1
2018-Apr-21 04:27N 34°36' E 128°48'816.4
2018-Apr-21 03:58N 34°33' E 128°40'1319.7
2018-Apr-21 03:20N 34°26' E 128°27'719.5
2018-Apr-21 02:58N 34°22' E 128°20'3019.8
2018-Apr-21 01:29N 34°07' E 127°49'1219.8
2018-Apr-21 00:54N 33°60' E 127°38'1019.6
2018-Apr-21 00:23N 33°57' E 127°27'820.6
2018-Apr-20 23:58N 33°56' E 127°17'1020.7
2018-Apr-20 23:29N 33°54' E 127°05'1020.5
2018-Apr-20 23:00N 33°53' E 126°53'1020.7
2018-Apr-20 22:30N 33°51' E 126°41'1220.4
2018-Apr-20 21:55N 33°49' E 126°26'6018.5
2018-Apr-20 18:40N 34°05' E 125°17'14018.9
2018-Apr-20 11:16N 36°16' E 124°17'518.7
2018-Apr-20 11:00N 36°20' E 124°13'1818.9
2018-Apr-20 10:04N 36°36' E 124°05'118.9
2018-Apr-20 10:00N 36°37' E 124°05'1819.0
2018-Apr-20 09:04N 36°54' E 123°57'219.3
2018-Apr-20 08:59N 36°55' E 123°56'1919.6
2018-Apr-20 08:02N 37°13' E 123°48'719.9
2018-Apr-20 07:39N 37°20' E 123°44'320.1
2018-Apr-20 07:30N 37°23' E 123°43'1020.1
2018-Apr-20 07:00N 37°32' E 123°38'1020.1
2018-Apr-20 06:30N 37°41' E 123°33'919.2
2018-Apr-20 06:00N 37°49' E 123°26'3419.1
2018-Apr-20 04:15N 38°00' E 122°46'418.4
2018-Apr-20 04:00N 38°02' E 122°41'918.2
2018-Apr-20 03:30N 38°05' E 122°30'918.2
2018-Apr-20 03:00N 38°07' E 122°19'918.1
2018-Apr-20 02:30N 38°12' E 122°09'918.4
2018-Apr-20 02:00N 38°14' E 121°58'918.1
2018-Apr-20 01:30N 38°18' E 121°47'917.9
2018-Apr-20 01:00N 38°21' E 121°36'917.8
2018-Apr-20 00:30N 38°23' E 121°25'4316.8
2018-Apr-19 21:58N 38°34' E 120°33'817.4
2018-Apr-19 21:30N 38°36' E 120°23'917.0
2018-Apr-19 20:59N 38°37' E 120°11'916.6
2018-Apr-19 20:28N 38°38' E 120°00'716.4
2018-Apr-19 20:00N 38°39' E 119°51'1416.3
2018-Apr-19 19:11N 38°41' E 119°34'2216.1
2018-Apr-19 17:50N 38°45' E 119°07'1216.1
2018-Apr-19 17:06N 38°47' E 118°52'216.2
2018-Apr-19 16:59N 38°47' E 118°49'  
2018-Apr-17 11:46N 38°42' E 120°26'312.2
2018-Apr-17 11:30N 38°42' E 120°30'1213.2
2018-Apr-17 10:34N 38°41' E 120°46'114.1
2018-Apr-17 10:30N 38°41' E 120°47'814.9
2018-Apr-17 10:00N 38°40' E 120°57'815.7
2018-Apr-17 09:30N 38°34' E 121°03'714.8
2018-Apr-17 09:00N 38°31' E 121°12'916.9
2018-Apr-17 08:27N 38°31' E 121°24'817.1
2018-Apr-17 08:00N 38°31' E 121°34'816.2
2018-Apr-17 07:30N 38°35' E 121°43'917.0
2018-Apr-17 07:00N 38°43' E 121°48'816.2
2018-Apr-17 06:30N 38°50' E 121°53'9 0.3
2018-Apr-16 02:37N 38°59' E 121°56'112.8
2018-Apr-16 02:30N 38°57' E 121°56'510.0
2018-Apr-16 02:00N 38°52' E 121°56'611.5
2018-Apr-16 01:30N 38°46' E 121°57'1 1.5
2018-Apr-16 00:59N 38°46' E 121°58'2 3.6
2018-Apr-16 00:30N 38°45' E 121°59'3 6.9
2018-Apr-16 00:00N 38°41' E 121°59'3 5.8
2018-Apr-15 23:30N 38°38' E 121°59'2 3.6
2018-Apr-15 23:00N 38°36' E 121°59'2 4.5
2018-Apr-15 22:30N 38°35' E 122°02'3 6.6
2018-Apr-15 22:00N 38°34' E 122°06'4 8.6
2018-Apr-15 21:30N 38°32' E 122°10'0 0.6
2018-Apr-15 21:00N 38°32' E 122°10'1 1.1
2018-Apr-15 20:30N 38°32' E 122°09'1 1.1
2018-Apr-15 20:00N 38°31' E 122°09'0 1.0
2018-Apr-15 19:30N 38°31' E 122°08'0 1.0
2018-Apr-15 19:00N 38°31' E 122°08'0 0.8
2018-Apr-15 18:30N 38°31' E 122°07'2 0.6
2018-Apr-15 14:51N 38°33' E 122°06'0 0.7
2018-Apr-15 14:30N 38°33' E 122°07'0 0.7
2018-Apr-15 14:00N 38°34' E 122°06'0 0.6
2018-Apr-15 13:30N 38°34' E 122°06'0 0.5
2018-Apr-15 12:51N 38°34' E 122°06'0 0.4
2018-Apr-15 12:30N 38°34' E 122°06'0 0.6
2018-Apr-15 12:00N 38°34' E 122°06'0 0.6
2018-Apr-15 11:21N 38°35' E 122°06'0 0.8
2018-Apr-15 10:57N 38°35' E 122°05'0 0.8
2018-Apr-15 10:30N 38°35' E 122°05'0 0.9
2018-Apr-15 10:00N 38°35' E 122°04'2 1.1
2018-Apr-15 08:18N 38°35' E 122°02'0 1.2
2018-Apr-15 07:57N 38°35' E 122°01'1 1.3
2018-Apr-15 07:30N 38°35' E 122°01'1 1.2
2018-Apr-15 07:00N 38°35' E 121°60'1 1.2
2018-Apr-15 06:30N 38°36' E 121°59'1 1.1
2018-Apr-15 05:57N 38°36' E 121°59'0 1.0
2018-Apr-15 05:30N 38°37' E 121°59'1 2.6
2018-Apr-15 05:00N 38°38' E 121°59'5 9.0
2018-Apr-15 04:30N 38°38' E 122°05'22 1.7
2018-Apr-14 15:44N 38°27' E 122°30'311.4
2018-Apr-14 15:29N 38°25' E 122°32'511.3
2018-Apr-14 15:00N 38°20' E 122°35'611.3
2018-Apr-14 14:30N 38°16' E 122°39'611.0
2018-Apr-14 14:00N 38°11' E 122°43'2111.1
2018-Apr-14 12:09N 37°54' E 122°58'211.6
2018-Apr-14 12:00N 37°53' E 122°59'611.6
2018-Apr-14 11:29N 37°48' E 123°03'612.0
2018-Apr-14 10:59N 37°43' E 123°08'612.2
2018-Apr-14 10:30N 37°38' E 123°13'42813.3
2018-Apr-13 02:22N 30°32' E 122°24'716.3
2018-Apr-13 01:56N 30°34' E 122°16'2 5.1
2018-Apr-13 01:30N 30°34' E 122°13'810.3
2018-Apr-13 00:44N 30°36' E 122°04'1 0.7
2018-Apr-12 22:54N 30°37' E 122°04'0 0.0
2018-Apr-12 22:27N 30°37' E 122°04'0 0.0
2018-Apr-12 21:44N 30°37' E 122°04'0 0.0
2018-Apr-12 21:26N 30°37' E 122°04'0 0.0
2018-Apr-12 21:00N 30°37' E 122°04'  

Dump ship's entire track history